Time;durP1;ratioP1;P1;durP2;ratioP2;P2;SDS_P1;SDS_P2;PMS_P1;PMS_P2;Temp;Humidity;BMP_temperature;BMP_pressure;BME280_temperature;BME280_humidity;BME280_pressure;Samples;Min_cycle;Max_cycle;Signal;HPM_P1;HPM_P2
2022/06/22 00:00:51;;;;;;;6.43;2.30;;;;;;;22.01;57.33;96098.69;10377821;28;20111;-21
2022/06/22 00:05:52;;;;;;;4.75;3.47;;;;;;;22.00;57.45;96079.19;10373655;28;20038;-21
2022/06/22 00:11:02;;;;;;;7.18;3.42;;;;;;;22.00;57.33;96088.53;10373662;28;20133;-22
2022/06/22 00:16:16;;;;;;;2.95;1.80;;;;;;;22.14;58.45;96074.56;10372422;28;20122;-21
2022/06/22 00:21:23;;;;;;;2.75;1.10;;;;;;;22.30;57.57;96078.41;10373466;28;20477;-22
2022/06/22 00:26:23;;;;;;;;;;;;;;;22.17;57.73;96087.25;10372987;28;20088;-22
2022/06/22 00:31:40;;;;;;;1.90;1.48;;;;;;;22.09;57.32;96104.47;10373303;28;19917;-21
2022/06/22 00:36:56;;;;;;;3.08;2.78;;;;;;;22.04;57.46;96124.09;10372042;28;20041;-21
2022/06/22 00:42:14;;;;;;;7.57;3.80;;;;;;;22.01;57.49;96131.84;10372354;28;20120;-21
2022/06/22 00:47:35;;;;;;;3.55;3.25;;;;;;;22.00;57.50;96130.16;10408018;28;20399;-21
2022/06/22 00:52:41;;;;;;;3.40;3.05;;;;;;;21.98;57.35;96124.25;10410939;28;20515;-21
2022/06/22 00:57:48;;;;;;;5.70;3.43;;;;;;;21.96;57.43;96123.44;10400302;28;20484;-21
2022/06/22 01:03:33;;;;;;;2.05;1.80;;;;;;;22.04;58.47;96103.72;10371367;28;20088;-21
2022/06/22 01:08:44;;;;;;;2.40;1.20;;;;;;;22.26;57.61;96121.88;10370186;28;20496;-21
2022/06/22 01:13:48;;;;;;;2.17;1.65;;;;;;;22.16;57.86;96126.34;10370215;28;20044;-21
2022/06/22 01:18:56;;;;;;;1.75;1.48;;;;;;;22.08;57.41;96123.16;10371554;28;20087;-21
2022/06/22 01:24:23;;;;;;;2.67;1.38;;;;;;;21.96;57.82;96113.25;10369501;28;20045;-21
2022/06/22 01:29:26;;;;;;;3.63;1.77;;;;;;;21.91;58.15;96115.06;10370147;28;20516;-22
2022/06/22 01:34:41;;;;;;;2.60;1.52;;;;;;;21.87;58.17;96118.56;10369710;28;20038;-22
2022/06/22 01:39:42;;;;;;;2.35;1.67;;;;;;;21.84;58.07;96107.59;10370032;28;20037;-21
2022/06/22 01:44:51;;;;;;;2.25;1.33;;;;;;;21.81;58.06;96095.75;10383916;28;20037;-22
2022/06/22 01:49:58;;;;;;;1.70;1.60;;;;;;;22.04;59.08;96105.41;10401296;28;20049;-21
2022/06/22 01:55:12;;;;;;;1.75;1.63;;;;;;;22.25;57.82;96098.13;10408202;28;20037;-22
2022/06/22 02:00:18;;;;;;;1.25;1.15;;;;;;;22.16;57.42;96113.59;10377168;28;20500;-21
2022/06/22 02:05:29;;;;;;;3.33;1.10;;;;;;;22.01;57.60;96120.78;10367639;28;20036;-23
2022/06/22 02:10:48;;;;;;;1.88;1.30;;;;;;;21.92;57.96;96118.47;10369502;28;20041;-23
2022/06/22 02:15:55;;;;;;;1.88;1.27;;;;;;;21.89;58.03;96119.34;10368466;28;20041;-21
2022/06/22 02:20:59;;;;;;;1.65;1.05;;;;;;;21.88;58.03;96121.97;10369073;28;20064;-21
2022/06/22 02:26:45;;;;;;;2.03;1.30;;;;;;;21.87;58.09;96121.13;10368295;28;20112;-21
2022/06/22 02:31:46;;;;;;;1.88;1.40;;;;;;;21.86;58.20;96128.78;10365489;28;20053;-21
2022/06/22 02:36:51;;;;;;;2.28;1.95;;;;;;;22.04;59.01;96119.00;10367449;28;20471;-21
2022/06/22 02:47:43;;;;;;;0.82;0.82;;;;;;;22.15;57.48;96124.69;10403349;28;20072;-21
2022/06/22 02:52:49;;;;;;;1.90;1.80;;;;;;;22.01;57.48;96125.88;10368425;28;20042;-21
2022/06/22 02:57:52;;;;;;;1.35;1.20;;;;;;;21.93;57.82;96128.63;10367457;28;20045;-21
2022/06/22 03:03:00;;;;;;;2.60;1.25;;;;;;;21.89;57.85;96133.84;10367314;28;20172;-21
2022/06/22 03:08:03;;;;;;;2.53;1.70;;;;;;;21.89;58.09;96136.38;10367199;28;20046;-24
2022/06/22 03:13:03;;;;;;;1.88;1.60;;;;;;;21.86;58.04;96127.09;10366252;28;20065;-20
2022/06/22 03:18:05;;;;;;;1.73;1.63;;;;;;;21.86;58.02;96132.19;10365341;28;20113;-21
2022/06/22 03:23:17;;;;;;;2.13;1.92;;;;;;;22.03;59.63;96135.19;10387826;28;20104;-22
2022/06/22 03:28:24;;;;;;;1.38;1.27;;;;;;;22.23;58.17;96143.19;10393439;28;20100;-22
2022/06/22 03:33:30;;;;;;;1.65;1.20;;;;;;;22.19;57.62;96156.91;10405697;28;20065;-21
2022/06/22 03:38:36;;;;;;;1.60;1.20;;;;;;;22.06;57.51;96188.63;10391610;28;20120;-21
2022/06/22 03:43:46;;;;;;;5.57;3.40;;;;;;;22.04;58.03;96258.38;10402817;28;20033;-24
2022/06/22 03:48:52;;;;;;;7.10;5.35;;;;;;;22.66;61.68;96281.66;10413295;28;20100;-21
2022/06/22 03:54:11;;;;;;;;;;;;;;;21.66;59.00;96276.16;10409287;28;20052;-20
2022/06/22 03:59:12;;;;;;;5.88;2.63;;;;;;;21.21;60.36;96266.81;10410081;28;19913;-22
2022/06/22 04:04:13;;;;;;;6.90;3.60;;;;;;;21.07;63.53;96268.75;10415135;28;20415;-21
2022/06/22 04:09:16;;;;;;;11.02;4.90;;;;;;;20.99;64.57;96276.50;10384487;28;20044;-21
2022/06/22 04:14:23;;;;;;;7.18;5.60;;;;;;;20.95;66.76;96254.53;10388114;28;20166;-20
2022/06/22 04:20:16;;;;;;;10.43;6.53;;;;;;;20.92;67.53;96249.50;10409327;28;20038;-21
2022/06/22 04:25:32;;;;;;;11.70;6.15;;;;;;;20.93;68.49;96243.53;10363852;28;20053;-20
2022/06/22 04:30:41;;;;;;;10.90;6.90;;;;;;;20.88;68.73;96235.13;10372669;28;20045;-21
2022/06/22 04:35:46;;;;;;;10.52;6.82;;;;;;;20.90;70.40;96235.94;10372383;28;20307;-20
2022/06/22 04:40:46;;;;;;;9.82;6.53;;;;;;;20.90;69.58;96230.03;10373608;28;20506;-21
2022/06/22 04:45:48;;;;;;;13.10;7.75;;;;;;;20.92;70.75;96221.50;10393683;28;20069;-21
2022/06/22 04:50:51;;;;;;;8.73;6.95;;;;;;;20.88;69.32;96222.41;10400785;28;20037;-22
2022/06/22 04:55:53;;;;;;;12.35;7.00;;;;;;;20.91;71.29;96226.63;10374174;28;20175;-21
2022/06/22 05:00:53;;;;;;;9.52;6.60;;;;;;;20.90;72.23;96220.69;10371646;28;20029;-21
2022/06/22 05:05:58;;;;;;;9.80;6.53;;;;;;;21.56;69.09;96229.59;10370922;28;20053;-21
2022/06/22 05:11:39;;;;;;;9.48;5.93;;;;;;;21.64;66.98;96207.38;10370675;28;20034;-21
2022/06/22 05:16:50;;;;;;;11.95;6.18;;;;;;;21.74;66.89;96202.97;10369515;28;20052;-21
2022/06/22 05:21:50;;;;;;;9.38;5.90;;;;;;;21.72;65.58;96210.63;10390953;28;20037;-21
2022/06/22 05:26:55;;;;;;;10.87;4.97;;;;;;;21.73;64.97;96207.22;10404887;28;20033;-22
2022/06/22 05:31:59;;;;;;;10.18;5.70;;;;;;;21.76;64.54;96206.31;10370370;28;20080;-23
2022/06/22 05:37:07;;;;;;;9.05;5.32;;;;;;;21.77;64.28;96208.84;10369029;28;20030;-20
2022/06/22 05:42:10;;;;;;;9.73;5.78;;;;;;;21.76;64.00;96202.06;10368400;28;20061;-23
2022/06/22 05:47:27;;;;;;;7.38;4.47;;;;;;;22.06;64.72;96206.50;10404910;28;20144;-22
2022/06/22 05:52:46;;;;;;;7.43;4.35;;;;;;;22.11;62.91;96199.59;10399809;28;20092;-20
2022/06/22 05:57:55;;;;;;;8.43;4.85;;;;;;;21.95;62.86;96165.13;10397615;28;20037;-22
2022/06/22 06:03:15;;;;;;;8.35;4.57;;;;;;;21.87;62.83;96173.78;10369817;28;20084;-23
2022/06/22 06:08:41;;;;;;;6.78;5.05;;;;;;;21.84;62.59;96171.31;10370068;28;20029;-22
2022/06/22 06:13:58;;;;;;;7.30;4.10;;;;;;;21.82;62.75;96190.91;10368196;28;20461;-22
2022/06/22 06:19:04;;;;;;;8.80;4.97;;;;;;;21.81;62.66;96205.34;10368589;28;20129;-21
2022/06/22 06:24:27;;;;;;;7.43;4.50;;;;;;;21.79;62.42;96204.53;10367759;28;20058;-21
2022/06/22 06:29:35;;;;;;;6.95;4.68;;;;;;;21.84;64.57;96190.00;10368730;28;20388;-21
2022/06/22 06:34:44;;;;;;;6.38;4.25;;;;;;;22.10;63.44;96182.63;10367910;28;20065;-20
2022/06/22 06:39:48;;;;;;;6.15;3.88;;;;;;;22.16;62.19;96179.09;10368699;28;20030;-21
2022/06/22 06:44:51;;;;;;;8.13;4.30;;;;;;;22.03;61.89;96191.28;10392796;28;20542;-22
2022/06/22 06:50:19;;;;;;;5.78;4.30;;;;;;;21.92;61.53;96193.22;10408238;28;20033;-22
2022/06/22 06:55:34;;;;;;;4.30;3.70;;;;;;;21.88;61.67;96206.88;10364661;28;20052;-21
2022/06/22 07:00:34;;;;;;;5.82;4.18;;;;;;;21.84;61.76;96200.19;10367018;28;20029;-21
2022/06/22 07:05:34;;;;;;;6.28;3.75;;;;;;;21.84;61.68;96200.19;10366100;28;20429;-21
2022/06/22 07:10:42;;;;;;;6.77;3.70;;;;;;;21.83;61.77;96213.81;10366770;28;20030;-21
2022/06/22 07:15:49;;;;;;;7.03;3.92;;;;;;;21.82;61.57;96212.13;10365841;28;20034;-21
2022/06/22 07:20:57;;;;;;;5.22;3.80;;;;;;;22.11;62.99;96222.53;10366410;28;20475;-22
2022/06/22 07:26:08;;;;;;;5.10;3.58;;;;;;;22.17;61.70;96227.50;10366185;28;20030;-21
2022/06/22 07:31:20;;;;;;;6.72;4.35;;;;;;;22.05;61.38;96227.75;10367443;28;20034;-21
2022/06/22 07:36:38;;;;;;;3.90;3.50;;;;;;;21.94;61.14;96216.13;10366060;28;20030;-21
2022/06/22 07:41:38;;;;;;;5.70;3.83;;;;;;;21.90;61.25;96214.50;10366665;28;20037;-21
2022/06/22 07:46:46;;;;;;;6.23;3.53;;;;;;;21.86;61.24;96213.75;10396754;28;20033;-20
2022/06/22 07:51:53;;;;;;;4.90;3.88;;;;;;;21.87;61.39;96215.41;10398122;28;20288;-21
2022/06/22 07:57:03;;;;;;;4.35;3.47;;;;;;;21.84;61.22;96200.19;10400647;28;20073;-21
2022/06/22 08:02:12;;;;;;;5.65;2.92;;;;;;;21.85;61.14;96204.41;10366743;28;20041;-22
2022/06/22 08:07:18;;;;;;;5.57;3.20;;;;;;;22.10;62.72;96208.13;10366426;28;20415;-21
2022/06/22 08:12:44;;;;;;;3.53;2.90;;;;;;;22.21;61.58;96211.25;10365654;28;20427;-22
2022/06/22 08:17:49;;;;;;;5.85;4.03;;;;;;;22.07;61.13;96203.06;10367595;28;20084;-22
2022/06/22 08:22:50;;;;;;;4.53;3.30;;;;;;;21.99;60.94;96215.13;10373358;28;20112;-20
2022/06/22 08:27:52;;;;;;;7.18;4.20;;;;;;;21.93;61.02;96210.19;10373238;28;20042;-23
2022/06/22 08:33:04;;;;;;;4.55;3.08;;;;;;;21.90;60.87;96210.25;10372780;28;20042;-21
2022/06/22 08:38:15;;;;;;;4.93;2.85;;;;;;;21.88;60.86;96216.28;10373363;28;20092;-22
2022/06/22 08:43:43;;;;;;;7.07;2.95;;;;;;;21.88;60.79;96219.63;10375051;28;20029;-21
2022/06/22 08:48:55;;;;;;;5.20;2.72;;;;;;;21.86;60.99;96229.03;10413423;28;20120;-21
2022/06/22 08:54:31;;;;;;;4.10;3.05;;;;;;;22.08;62.83;96224.31;10412787;28;20033;-21
2022/06/22 08:59:41;;;;;;;3.80;2.60;;;;;;;22.22;61.17;96235.88;10382714;28;20068;-21
2022/06/22 09:05:19;;;;;;;6.45;3.17;;;;;;;22.10;60.86;96243.81;10371729;28;20045;-22
2022/06/22 09:10:33;;;;;;;4.60;2.90;;;;;;;21.99;60.58;96244.91;10372196;28;20042;-22
2022/06/22 09:15:45;;;;;;;6.80;2.75;;;;;;;21.94;60.71;96256.91;10370860;28;20041;-21
2022/06/22 09:21:07;;;;;;;6.82;2.75;;;;;;;21.92;60.54;96256.94;10371067;28;20409;-21
2022/06/22 09:26:41;;;;;;;6.35;2.88;;;;;;;21.90;60.70;96276.50;10370475;28;20034;-21
2022/06/22 09:31:57;;;;;;;5.57;2.75;;;;;;;21.89;60.74;96277.38;10368728;28;20050;-20
2022/06/22 09:37:03;;;;;;;5.72;3.13;;;;;;;21.89;60.82;96284.22;10369937;28;20045;-21
2022/06/22 09:42:22;;;;;;;;;;;;;;;22.12;61.96;96285.41;10371340;28;20088;-22
2022/06/22 09:47:33;;;;;;;3.65;2.35;;;;;;;22.21;61.22;96292.84;10407026;28;19923;-21
2022/06/22 09:53:11;;;;;;;6.00;3.15;;;;;;;22.10;61.03;96284.59;10398110;28;20041;-21
2022/06/22 09:58:46;;;;;;;2.90;2.60;;;;;;;22.00;60.31;96282.28;10394614;28;20049;-23
2022/06/22 10:04:26;;;;;;;4.93;2.92;;;;;;;21.94;60.48;96293.44;10368832;28;20030;-20
2022/06/22 10:09:54;;;;;;;5.55;2.55;;;;;;;21.90;60.66;96276.50;10369896;28;20034;-22
2022/06/22 10:15:07;;;;;;;4.22;2.17;;;;;;;21.91;60.49;96275.63;10368230;28;20540;-21
2022/06/22 10:20:26;;;;;;;4.63;2.92;;;;;;;21.91;60.86;96273.09;10369231;28;20026;-21
2022/06/22 10:25:36;;;;;;;5.13;2.50;;;;;;;21.93;61.03;96266.28;10367532;28;20531;-21
2022/06/22 10:30:48;;;;;;;3.13;2.00;;;;;;;22.17;61.79;96263.22;10368444;28;20060;-21
2022/06/22 10:36:26;;;;;;;2.85;2.50;;;;;;;22.23;61.29;96267.31;10368495;28;20042;-21
2022/06/22 10:47:07;;;;;;;7.37;2.80;;;;;;;21.99;60.30;96250.81;10400065;28;20030;-21
2022/06/22 10:52:27;;;;;;;13.90;2.95;;;;;;;21.94;60.63;96254.34;10396340;28;20036;-20
2022/06/22 10:57:27;;;;;;;8.25;4.22;;;;;;;21.92;60.66;96245.91;10398558;28;20037;-21
2022/06/22 11:03:17;;;;;;;9.18;3.13;;;;;;;21.91;60.42;96242.50;10366922;28;20112;-21
2022/06/22 11:08:44;;;;;;;7.07;3.67;;;;;;;21.85;60.84;96232.47;10365475;28;20049;-22
2022/06/22 11:14:14;;;;;;;8.70;3.35;;;;;;;21.94;62.70;96237.34;10366520;28;20416;-23
2022/06/22 11:19:45;;;;;;;11.77;4.10;;;;;;;22.18;63.77;96225.78;10367255;28;20042;-23
2022/06/22 11:25:07;;;;;;;4.68;3.33;;;;;;;22.17;61.87;96221.56;10366478;28;20038;-21
2022/06/22 11:35:57;;;;;;;10.10;4.03;;;;;;;21.99;60.98;96215.13;10366882;28;20041;-21
2022/06/22 11:41:19;;;;;;;12.18;3.70;;;;;;;22.01;60.37;96223.63;10366588;28;20041;-22
2022/06/22 11:46:30;;;;;;;7.35;3.70;;;;;;;21.97;60.77;96216.06;10393595;28;20037;-21
2022/06/22 11:52:02;;;;;;;10.35;5.65;;;;;;;21.97;60.50;96221.97;10396611;28;20416;-21
2022/06/22 11:57:33;;;;;;;11.63;4.45;;;;;;;21.95;60.35;96218.63;10374197;28;20397;-23
2022/06/22 12:02:59;;;;;;;12.95;4.32;;;;;;;22.11;65.09;96216.59;10373862;28;20033;-21
2022/06/22 12:08:33;;;;;;;7.37;2.13;;;;;;;22.31;61.38;96212.72;10374533;28;20056;-21
2022/06/22 12:13:39;;;;;;;3.60;2.70;;;;;;;22.21;61.01;96211.25;10372877;28;20041;-21
2022/06/22 12:18:55;;;;;;;6.72;2.65;;;;;;;22.11;60.39;96211.47;10374768;28;20125;-21
2022/06/22 12:24:08;;;;;;;10.60;2.60;;;;;;;22.02;60.59;96199.78;10372747;28;20042;-21
2022/06/22 12:29:54;;;;;;;9.70;2.58;;;;;;;22.00;60.50;96193.91;10373079;28;20049;-23
2022/06/22 12:35:05;;;;;;;8.13;3.15;;;;;;;21.96;60.60;96184.63;10370612;28;20519;-21
2022/06/22 12:40:20;;;;;;;10.05;2.72;;;;;;;21.91;60.63;96191.53;10372819;28;20042;-23
2022/06/22 12:45:44;;;;;;;13.15;3.33;;;;;;;21.91;60.53;96186.41;10395432;28;20109;-21
2022/06/22 12:51:02;;;;;;;8.43;2.53;;;;;;;22.03;62.41;96181.06;10411427;28;20038;-22
2022/06/22 12:56:11;;;;;;;5.05;2.20;;;;;;;22.25;61.15;96166.13;10373919;28;20029;-23
2022/06/22 13:01:12;;;;;;;2.58;2.38;;;;;;;22.16;61.06;96156.97;10373900;28;20432;-22
2022/06/22 13:06:13;;;;;;;3.75;2.28;;;;;;;22.10;60.25;96169.88;10370177;28;20030;-22
2022/06/22 13:11:20;;;;;;;6.65;2.75;;;;;;;22.01;60.33;96164.97;10371491;28;20504;-24
2022/06/22 13:16:27;;;;;;;10.38;3.28;;;;;;;21.99;60.39;96164.16;10371342;28;20049;-20
2022/06/22 13:21:39;;;;;;;4.93;2.00;;;;;;;21.94;59.98;96153.25;10371296;28;20029;-19
2022/06/22 13:27:02;;;;;;;7.40;2.75;;;;;;;21.91;60.60;96150.75;10370658;28;20592;-20
2022/06/22 13:32:09;;;;;;;6.15;2.28;;;;;;;21.91;60.45;96144.81;10370744;28;20073;-21
2022/06/22 13:37:38;;;;;;;9.70;3.42;;;;;;;21.97;62.02;96135.31;10371529;28;20041;-20
2022/06/22 13:43:07;;;;;;;2.75;1.92;;;;;;;22.22;61.06;96127.94;10370504;28;20033;-21
2022/06/22 13:48:25;;;;;;;3.72;2.08;;;;;;;22.21;60.72;96127.09;10374288;28;20136;-21
2022/06/22 13:54:04;;;;;;;5.10;2.40;;;;;;;22.09;60.15;96119.75;10405878;28;20119;-18
2022/06/22 13:59:17;;;;;;;3.47;2.40;;;;;;;22.03;60.24;96125.00;10387469;28;20065;-20
2022/06/22 14:04:28;;;;;;;6.47;2.47;;;;;;;21.99;60.29;96128.47;10369441;28;20057;-19
2022/06/22 14:09:42;;;;;;;4.10;2.47;;;;;;;21.95;60.41;96116.69;10369557;28;20116;-19
2022/06/22 14:15:13;;;;;;;5.57;2.58;;;;;;;21.92;60.26;96121.84;10368881;28;20042;-20
2022/06/22 14:20:58;;;;;;;8.15;2.45;;;;;;;21.96;60.27;96123.44;10369015;28;20042;-22
2022/06/22 14:26:35;;;;;;;8.75;2.28;;;;;;;22.06;63.64;96131.72;10368494;28;20037;-21
2022/06/22 14:31:47;;;;;;;2.25;2.05;;;;;;;22.26;61.18;96130.38;10368972;28;20456;-20
2022/06/22 14:36:53;;;;;;;3.05;1.92;;;;;;;22.21;60.77;96129.66;10367565;28;20095;-19
2022/06/22 14:42:01;;;;;;;4.03;2.00;;;;;;;22.11;60.19;96148.59;10367876;28;20041;-19
2022/06/22 14:47:16;;;;;;;4.28;1.83;;;;;;;22.05;60.19;96150.47;10400717;28;20115;-20
2022/06/22 14:52:27;;;;;;;3.67;1.63;;;;;;;21.97;60.29;96153.16;10402102;28;20034;-19
2022/06/22 14:57:37;;;;;;;5.50;2.63;;;;;;;21.99;60.22;96163.34;10398253;28;20077;-22
2022/06/22 15:03:11;;;;;;;6.38;2.45;;;;;;;21.95;60.36;96172.75;10368222;28;20473;-19
2022/06/22 15:08:38;;;;;;;4.88;1.85;;;;;;;21.93;60.42;96163.47;10367156;28;20046;-21
2022/06/22 15:13:48;;;;;;;4.55;1.67;;;;;;;22.00;62.27;96150.56;10366086;28;20041;-20
2022/06/22 15:19:11;;;;;;;2.78;1.92;;;;;;;22.25;60.89;96140.63;10367493;28;20036;-23
2022/06/22 15:24:28;;;;;;;2.67;2.15;;;;;;;22.23;60.54;96138.09;10365717;28;20034;-20
2022/06/22 15:29:46;;;;;;;2.63;1.90;;;;;;;22.12;60.19;96129.88;10365767;28;20030;-20
2022/06/22 15:34:54;;;;;;;4.50;1.73;;;;;;;22.04;60.47;96113.06;10365975;28;20060;-19
2022/06/22 15:40:13;;;;;;;3.00;1.95;;;;;;;22.01;60.18;96101.25;10366441;28;20034;-20
2022/06/22 15:45:46;;;;;;;5.93;1.90;;;;;;;22.03;60.61;96108.84;10384100;28;20200;-21
2022/06/22 15:50:51;;;;;;;3.17;1.65;;;;;;;22.01;60.19;96131.84;10389466;28;20046;-20
2022/06/22 15:56:28;;;;;;;4.22;1.90;;;;;;;21.99;60.80;96113.16;10401554;28;20111;-21
2022/06/22 16:01:29;;;;;;;4.60;2.15;;;;;;;22.00;60.49;96119.13;10404286;28;20515;-20
2022/06/22 16:06:50;;;;;;;4.30;2.47;;;;;;;22.22;61.51;96125.41;10392478;28;20053;-20
2022/06/22 16:17:54;;;;;;;11.50;4.10;;;;;;;22.08;61.00;96102.75;10401919;28;20560;-19
2022/06/22 16:23:09;;;;;;;7.55;2.55;;;;;;;22.06;60.49;96094.31;10396120;28;20108;-19
2022/06/22 16:28:18;;;;;;;10.43;3.22;;;;;;;22.03;60.29;96086.75;10401538;28;20048;-21
2022/06/22 16:33:30;;;;;;;10.20;3.17;;;;;;;22.00;60.27;96089.38;10403515;28;20084;-20
2022/06/22 16:38:48;;;;;;;9.50;3.63;;;;;;;21.98;59.99;96095.38;10397509;28;20025;-19
2022/06/22 16:44:17;;;;;;;6.38;3.25;;;;;;;21.96;60.48;96118.34;10403406;28;20036;-19
2022/06/22 16:49:21;;;;;;;8.20;2.80;;;;;;;21.98;60.40;96115.78;10395096;28;20044;-21
2022/06/22 16:54:28;;;;;;;4.63;2.15;;;;;;;22.19;61.84;96131.41;10398686;28;20048;-21
2022/06/22 16:59:29;;;;;;;;;;;;;;;22.31;60.62;96109.88;10403484;28;20572;-20
2022/06/22 17:04:37;;;;;;;5.97;2.25;;;;;;;22.17;60.91;96097.47;10403453;28;19920;-19
2022/06/22 17:09:53;;;;;;;7.45;2.40;;;;;;;22.13;60.92;96090.75;10406566;28;20042;-20
2022/06/22 17:14:55;;;;;;;5.47;2.33;;;;;;;22.08;60.68;96107.84;10406827;28;20037;-20
2022/06/22 17:20:12;;;;;;;9.88;3.00;;;;;;;22.06;60.70;96124.91;10408967;28;20117;-20
2022/06/22 17:25:57;;;;;;;5.75;2.10;;;;;;;22.10;61.62;96174.97;10406134;28;20087;-20
2022/06/22 17:31:16;;;;;;;6.15;2.83;;;;;;;22.10;60.55;96225.97;10407973;28;20033;-19
2022/06/22 17:36:30;;;;;;;4.25;2.05;;;;;;;22.11;62.61;96263.31;10403968;28;20156;-21
2022/06/22 17:41:56;;;;;;;7.38;2.38;;;;;;;22.23;64.75;96295.38;10407313;28;20120;-21
2022/06/22 17:46:59;;;;;;;;;;;;;;;22.44;65.75;96310.25;10403089;28;20080;-21
2022/06/22 17:52:06;;;;;;;4.63;1.77;;;;;;;22.31;64.10;96314.72;10409905;28;20379;-22
2022/06/22 17:57:14;;;;;;;9.85;2.42;;;;;;;22.22;62.02;96303.91;10417218;28;20387;-20
2022/06/22 18:02:47;;;;;;;8.43;2.30;;;;;;;22.08;60.66;96262.56;10410608;28;20108;-20
2022/06/22 18:07:52;;;;;;;4.32;2.30;;;;;;;22.00;60.81;96219.41;10407293;28;20056;-21
2022/06/22 18:12:54;;;;;;;6.68;2.45;;;;;;;21.97;60.66;96176.09;10410255;28;20041;-21
2022/06/22 18:17:57;;;;;;;9.57;2.58;;;;;;;21.96;60.75;96148.94;10399979;28;20033;-21
2022/06/22 18:23:27;;;;;;;11.00;2.50;;;;;;;21.94;60.56;96114.16;10400212;28;20466;-20
2022/06/22 18:28:40;;;;;;;8.43;2.20;;;;;;;22.10;64.86;96095.94;10398430;28;20075;-21
2022/06/22 18:34:02;;;;;;;7.43;1.90;;;;;;;22.35;63.55;96119.97;10400338;28;20045;-21
2022/06/22 18:44:34;;;;;;;10.90;2.80;;;;;;;22.28;61.79;96080.19;10398278;28;20111;-20
2022/06/22 18:49:43;;;;;;;8.80;2.60;;;;;;;22.23;63.10;96076.88;10396983;28;20034;-22
2022/06/22 18:55:16;;;;;;;8.70;2.38;;;;;;;22.14;61.59;96068.66;10401606;28;20523;-20
2022/06/22 19:00:28;;;;;;;10.70;2.33;;;;;;;22.17;62.77;96036.28;10400265;28;20120;-20
2022/06/22 19:05:38;;;;;;;8.02;2.08;;;;;;;22.19;62.30;96044.72;10390510;28;20032;-20
2022/06/22 19:10:40;;;;;;;5.68;1.90;;;;;;;22.19;65.52;96075.31;10398074;28;20099;-20
2022/06/22 19:15:52;;;;;;;5.28;2.03;;;;;;;22.27;66.15;96086.16;10396650;28;20490;-22
2022/06/22 19:21:01;;;;;;;9.00;2.10;;;;;;;22.46;66.87;96089.94;10396389;28;20492;-21
2022/06/22 19:26:11;;;;;;;7.15;2.17;;;;;;;22.38;63.87;96107.13;10394499;28;20047;-20
2022/06/22 19:31:42;;;;;;;9.07;2.47;;;;;;;22.32;64.48;96145.53;10400998;28;20519;-20
2022/06/22 19:36:55;;;;;;;6.70;1.63;;;;;;;22.49;68.04;96165.56;10388107;28;20099;-22
2022/06/22 19:42:09;;;;;;;17.08;3.08;;;;;;;22.42;64.43;96195.50;10398446;28;20091;-20
2022/06/22 19:47:37;;;;;;;9.80;2.63;;;;;;;22.54;65.42;96222.41;10407098;28;20040;-21
2022/06/22 19:53:00;;;;;;;9.93;2.85;;;;;;;22.32;65.53;96265.41;10398528;28;20149;-22
2022/06/22 19:58:00;;;;;;;5.55;2.15;;;;;;;22.14;61.49;96273.44;10397302;28;20030;-20
2022/06/22 20:03:25;;;;;;;9.43;1.80;;;;;;;22.15;63.40;96298.06;10398414;28;20029;-20
2022/06/22 20:08:50;;;;;;;4.68;2.47;;;;;;;22.36;63.38;96307.84;10392339;28;20037;-20
2022/06/22 20:14:17;;;;;;;5.80;1.55;;;;;;;22.25;61.77;96319.97;10397298;28;20046;-21
2022/06/22 20:19:18;;;;;;;;;;;;;;;22.15;60.69;96322.75;10409932;28;20039;-20
2022/06/22 20:24:30;;;;;;;3.53;1.40;;;;;;;22.02;60.60;96299.22;10410129;28;19913;-22
2022/06/22 20:29:49;;;;;;;7.45;3.03;;;;;;;22.00;60.49;96287.38;10408017;28;20056;-21
2022/06/22 20:35:17;;;;;;;4.80;1.50;;;;;;;21.98;60.47;96284.03;10406755;28;20041;-20
2022/06/22 20:40:40;;;;;;;8.20;2.33;;;;;;;21.96;60.40;96286.59;10407672;28;20038;-20
2022/06/22 20:46:00;;;;;;;4.15;1.25;;;;;;;21.95;60.57;96284.91;10405624;28;20450;-19
2022/06/22 20:51:08;;;;;;;5.93;1.77;;;;;;;21.98;61.88;96302.69;10405833;28;20034;-20
2022/06/22 20:56:21;;;;;;;1.27;1.08;;;;;;;21.24;63.22;96308.31;10416403;28;20488;-21
2022/06/22 21:01:22;;;;;;;4.05;1.55;;;;;;;20.95;66.93;96335.97;10407399;28;20296;-20
2022/06/22 21:06:31;;;;;;;3.00;1.48;;;;;;;20.77;67.84;96345.53;10410731;28;20454;-22
2022/06/22 21:11:38;;;;;;;4.28;1.60;;;;;;;20.77;68.66;96366.75;10408570;28;20034;-20
2022/06/22 21:16:56;;;;;;;5.65;1.75;;;;;;;20.69;69.17;96352.44;10408541;28;20034;-19
2022/06/22 21:22:12;;;;;;;6.72;1.80;;;;;;;20.66;68.80;96355.91;10408635;28;20396;-19
2022/06/22 21:27:13;;;;;;;6.85;2.58;;;;;;;20.56;69.42;96346.69;10404028;28;20064;-20
2022/06/22 21:32:20;;;;;;;5.22;1.70;;;;;;;20.50;69.95;96348.50;10408006;28;20132;-19
2022/06/22 21:37:30;;;;;;;5.53;1.67;;;;;;;20.54;69.74;96352.69;10407446;28;20432;-20
2022/06/22 21:42:56;;;;;;;5.95;1.55;;;;;;;20.49;69.79;96365.47;10399794;28;20033;-19
2022/06/22 21:48:07;;;;;;;9.47;2.10;;;;;;;20.48;69.87;96376.47;10406965;28;20076;-19
2022/06/22 21:53:16;;;;;;;6.15;1.85;;;;;;;20.57;69.23;96378.06;10405591;28;20666;-21
2022/06/22 21:58:25;;;;;;;8.45;2.30;;;;;;;20.46;69.94;96370.56;10412711;28;20041;-19
2022/06/22 22:03:53;;;;;;;6.10;1.70;;;;;;;20.49;69.63;96379.88;10410827;28;20061;-20
2022/06/22 22:08:54;;;;;;;7.30;2.15;;;;;;;20.43;70.47;96375.72;10404806;28;20033;-20
2022/06/22 22:13:59;;;;;;;3.78;1.83;;;;;;;20.42;70.49;96368.94;10404057;28;20095;-20
2022/06/22 22:19:06;;;;;;;8.02;2.38;;;;;;;20.39;70.50;96373.22;10407093;28;20037;-19
2022/06/22 22:24:15;;;;;;;7.20;2.45;;;;;;;20.38;70.59;96360.53;10405908;28;20079;-19
2022/06/22 22:29:21;;;;;;;6.47;1.90;;;;;;;20.39;70.44;96345.25;10403638;28;20069;-21
2022/06/22 22:34:23;;;;;;;;;;;;;;;20.41;70.25;96346.06;10406942;28;20037;-19
2022/06/22 22:39:33;;;;;;;8.18;2.10;;;;;;;20.50;69.65;96331.53;10404103;28;19975;-19
2022/06/22 22:44:39;;;;;;;7.68;2.75;;;;;;;20.48;69.63;96327.34;10402748;28;20404;-20
2022/06/22 22:49:44;;;;;;;4.18;1.90;;;;;;;20.49;69.64;96334.09;10406460;28;20040;-19
2022/06/22 22:54:55;;;;;;;6.63;2.42;;;;;;;20.45;69.77;96328.22;10405598;28;20073;-21
2022/06/22 23:00:28;;;;;;;4.53;1.83;;;;;;;20.43;70.36;96327.41;10398989;28;20119;-20
2022/06/22 23:05:32;;;;;;;7.45;2.53;;;;;;;20.35;70.57;96325.81;10403359;28;20046;-20
2022/06/22 23:10:35;;;;;;;5.35;2.35;;;;;;;20.32;70.82;96325.84;10404490;28;20091;-19
2022/06/22 23:15:37;;;;;;;7.18;2.22;;;;;;;20.30;70.93;96327.59;10403656;28;20147;-20
2022/06/22 23:20:45;;;;;;;6.50;1.98;;;;;;;20.33;70.80;96336.88;10402443;28;20041;-20
2022/06/22 23:26:00;;;;;;;9.50;2.50;;;;;;;20.27;70.91;96336.97;10404446;28;20124;-19
2022/06/22 23:31:04;;;;;;;7.78;2.28;;;;;;;20.28;70.26;96328.47;10401554;28;20091;-19
2022/06/22 23:36:26;;;;;;;7.93;2.45;;;;;;;20.42;69.78;96333.34;10402406;28;20030;-19
2022/06/22 23:41:26;;;;;;;9.05;2.05;;;;;;;20.46;69.28;96334.97;10403706;28;20038;-19
2022/06/22 23:46:29;;;;;;;13.07;3.17;;;;;;;20.44;69.71;96328.22;10403551;28;20393;-20
2022/06/22 23:51:49;;;;;;;6.85;1.95;;;;;;;20.47;69.38;96341.75;10409743;28;20041;-19
2022/06/22 23:56:58;;;;;;;11.40;3.35;;;;;;;20.42;69.47;96324.03;10411605;28;20045;-21
